Rouyn Noranda Airport
CYUY : now visible

Airfield :











YOU CAN JOIN US ON...

 
LOGIN :

Register | Disclaimer

   EN    FR    IT 

 









Legend :    VFR   Marginal VFR   IFR   Intensive IFR   Very Intensive IFR
Visi :
Ceiling :
>= 8 km
>= 3000ft
5 to 8 km
1000 to 3000 ft
1500m to 5 km
500 to 1000 ft
800 to 1500m
200 to 500 ft
< 800m
< 200 ft
Symbols :   Thunderstorms  Fog  Heavy snow  Heavy precipitations  Wind > 20 kt






- Airport Elevation : 988 ft
- IATA code : YUY


CYUY - Rouyn Noranda

CURRENT METAR :
  • 120300Z 27007KT 15SM SKC M20/M24 A3019 RMK SLP258

EXPIRED METARs :
  • 120200Z 26007KT 15SM SCT031 M21/M24 A3016 RMK SC3 SLP250
  • 120100Z 24005KT 15SM FEW028 SCT054 M23/M25 A3014 RMK SC1SC3 SLP243
  • 120044Z 22005KT 15SM FEW029 SCT055 M23/M26 A3012 RMK SC1SC3 SLP238

TAF TAF CYUY
Valid from the 12 at 00:00 until the 12 at 12:00 UTC


112338Z 1200/1212 29008KT P6SM FEW050
BECMG 1206/1208 VRB03KT RMK NXT FCST BY 120600Z



MET'MAP, your aeronautical weather chart ! - Copyright ORBIFLY December 2007 - Disclaimer

ORBIFLY MET'MAP TEAM :

Programming & Development : Alexandra Zaïnal
Concept & original design : Baudouin d'Aumeries
Assistance for programming : Marc-Olivier Méhu
Technical & hardware support : Manuel Goepfert

Contact : metmap@orbifly.com




SOURCES & CREDITS :

   NOAA       Earth
Advisory